sensor_id;sensor_type;location;lat;lon;timestamp;P1;durP1;ratioP1;P2;durP2;ratioP2
13588;SDS011;6865;52.552;13.434;2022-11-21T00:00:45;16.97;;;11.07;;
13588;SDS011;6865;52.552;13.434;2022-11-21T00:03:13;18.43;;;12.37;;
13588;SDS011;6865;52.552;13.434;2022-11-21T00:05:41;20.23;;;12.43;;
13588;SDS011;6865;52.552;13.434;2022-11-21T00:08:10;17.60;;;11.53;;
13588;SDS011;6865;52.552;13.434;2022-11-21T00:10:39;19.53;;;12.13;;
13588;SDS011;6865;52.552;13.434;2022-11-21T00:13:06;20.40;;;13.13;;
13588;SDS011;6865;52.552;13.434;2022-11-21T00:15:37;18.57;;;12.50;;
13588;SDS011;6865;52.552;13.434;2022-11-21T00:18:03;20.43;;;13.17;;
13588;SDS011;6865;52.552;13.434;2022-11-21T00:20:30;19.77;;;12.83;;
13588;SDS011;6865;52.552;13.434;2022-11-21T00:22:57;19.50;;;12.90;;
13588;SDS011;6865;52.552;13.434;2022-11-21T00:25:24;20.57;;;12.97;;
13588;SDS011;6865;52.552;13.434;2022-11-21T00:27:51;21.27;;;13.47;;
13588;SDS011;6865;52.552;13.434;2022-11-21T00:30:18;19.63;;;12.20;;
13588;SDS011;6865;52.552;13.434;2022-11-21T00:32:44;19.97;;;12.23;;
13588;SDS011;6865;52.552;13.434;2022-11-21T00:35:11;19.83;;;12.83;;
13588;SDS011;6865;52.552;13.434;2022-11-21T00:37:38;19.90;;;12.73;;
13588;SDS011;6865;52.552;13.434;2022-11-21T00:40:05;18.80;;;12.37;;
13588;SDS011;6865;52.552;13.434;2022-11-21T00:42:32;20.70;;;13.00;;
13588;SDS011;6865;52.552;13.434;2022-11-21T00:44:58;21.37;;;13.63;;
13588;SDS011;6865;52.552;13.434;2022-11-21T00:47:25;19.87;;;12.63;;
13588;SDS011;6865;52.552;13.434;2022-11-21T00:49:52;20.53;;;12.97;;
13588;SDS011;6865;52.552;13.434;2022-11-21T00:52:18;18.57;;;12.90;;
13588;SDS011;6865;52.552;13.434;2022-11-21T00:54:45;18.53;;;12.33;;
13588;SDS011;6865;52.552;13.434;2022-11-21T00:57:11;18.93;;;12.20;;
13588;SDS011;6865;52.552;13.434;2022-11-21T00:59:38;19.70;;;11.60;;
13588;SDS011;6865;52.552;13.434;2022-11-21T01:02:04;16.57;;;11.90;;
13588;SDS011;6865;52.552;13.434;2022-11-21T01:04:31;19.20;;;11.60;;
13588;SDS011;6865;52.552;13.434;2022-11-21T01:06:59;18.47;;;11.97;;
13588;SDS011;6865;52.552;13.434;2022-11-21T01:09:26;19.93;;;12.40;;
13588;SDS011;6865;52.552;13.434;2022-11-21T01:11:54;19.40;;;12.30;;
13588;SDS011;6865;52.552;13.434;2022-11-21T01:14:21;21.47;;;12.87;;
13588;SDS011;6865;52.552;13.434;2022-11-21T01:16:48;17.83;;;11.73;;
13588;SDS011;6865;52.552;13.434;2022-11-21T01:19:15;17.77;;;11.57;;
13588;SDS011;6865;52.552;13.434;2022-11-21T01:21:41;19.73;;;12.07;;
13588;SDS011;6865;52.552;13.434;2022-11-21T01:24:09;18.57;;;12.07;;
13588;SDS011;6865;52.552;13.434;2022-11-21T01:26:36;19.47;;;11.97;;
13588;SDS011;6865;52.552;13.434;2022-11-21T01:29:03;20.60;;;12.23;;
13588;SDS011;6865;52.552;13.434;2022-11-21T01:31:30;19.43;;;12.43;;
13588;SDS011;6865;52.552;13.434;2022-11-21T01:33:57;18.50;;;12.07;;
13588;SDS011;6865;52.552;13.434;2022-11-21T01:36:29;18.13;;;11.73;;
13588;SDS011;6865;52.552;13.434;2022-11-21T01:38:57;18.77;;;11.77;;
13588;SDS011;6865;52.552;13.434;2022-11-21T01:41:27;15.97;;;11.30;;
13588;SDS011;6865;52.552;13.434;2022-11-21T01:44:01;18.47;;;11.90;;
13588;SDS011;6865;52.552;13.434;2022-11-21T01:46:35;18.20;;;12.37;;
13588;SDS011;6865;52.552;13.434;2022-11-21T01:49:03;18.63;;;11.40;;
13588;SDS011;6865;52.552;13.434;2022-11-21T01:54:27;18.07;;;11.47;;
13588;SDS011;6865;52.552;13.434;2022-11-21T01:57:04;16.83;;;11.20;;
13588;SDS011;6865;52.552;13.434;2022-11-21T01:59:42;15.80;;;10.83;;
13588;SDS011;6865;52.552;13.434;2022-11-21T02:02:29;15.77;;;10.43;;
13588;SDS011;6865;52.552;13.434;2022-11-21T02:04:59;16.77;;;10.63;;
13588;SDS011;6865;52.552;13.434;2022-11-21T02:07:27;16.80;;;11.27;;
13588;SDS011;6865;52.552;13.434;2022-11-21T02:09:57;17.17;;;11.83;;
13588;SDS011;6865;52.552;13.434;2022-11-21T02:12:31;17.30;;;11.43;;
13588;SDS011;6865;52.552;13.434;2022-11-21T02:15:04;17.00;;;11.20;;
13588;SDS011;6865;52.552;13.434;2022-11-21T02:17:32;19.17;;;11.20;;
13588;SDS011;6865;52.552;13.434;2022-11-21T02:20:03;18.23;;;11.80;;
13588;SDS011;6865;52.552;13.434;2022-11-21T02:25:14;17.70;;;11.63;;
13588;SDS011;6865;52.552;13.434;2022-11-21T02:27:57;16.70;;;10.63;;
13588;SDS011;6865;52.552;13.434;2022-11-21T02:30:30;17.50;;;12.07;;
13588;SDS011;6865;52.552;13.434;2022-11-21T02:33:00;17.80;;;11.27;;
13588;SDS011;6865;52.552;13.434;2022-11-21T02:35:26;17.90;;;11.40;;
13588;SDS011;6865;52.552;13.434;2022-11-21T02:37:55;19.90;;;11.73;;
13588;SDS011;6865;52.552;13.434;2022-11-21T02:40:49;18.70;;;11.73;;
13588;SDS011;6865;52.552;13.434;2022-11-21T02:43:27;17.53;;;11.77;;
13588;SDS011;6865;52.552;13.434;2022-11-21T02:45:57;17.07;;;11.00;;
13588;SDS011;6865;52.552;13.434;2022-11-21T02:48:24;17.70;;;11.37;;
13588;SDS011;6865;52.552;13.434;2022-11-21T02:50:50;17.97;;;11.67;;
13588;SDS011;6865;52.552;13.434;2022-11-21T02:53:17;17.07;;;11.17;;
13588;SDS011;6865;52.552;13.434;2022-11-21T02:55:44;18.37;;;11.63;;
13588;SDS011;6865;52.552;13.434;2022-11-21T02:58:11;16.23;;;11.03;;
13588;SDS011;6865;52.552;13.434;2022-11-21T03:00:38;16.93;;;11.40;;
13588;SDS011;6865;52.552;13.434;2022-11-21T03:03:06;17.47;;;11.47;;
13588;SDS011;6865;52.552;13.434;2022-11-21T03:05:33;18.03;;;11.33;;
13588;SDS011;6865;52.552;13.434;2022-11-21T03:08:00;18.20;;;12.10;;
13588;SDS011;6865;52.552;13.434;2022-11-21T03:10:26;18.83;;;12.20;;
13588;SDS011;6865;52.552;13.434;2022-11-21T03:12:53;16.50;;;11.07;;
13588;SDS011;6865;52.552;13.434;2022-11-21T03:15:27;18.10;;;11.93;;
13588;SDS011;6865;52.552;13.434;2022-11-21T03:17:55;17.10;;;11.37;;
13588;SDS011;6865;52.552;13.434;2022-11-21T03:20:22;16.23;;;11.33;;
13588;SDS011;6865;52.552;13.434;2022-11-21T03:22:49;16.53;;;11.60;;
13588;SDS011;6865;52.552;13.434;2022-11-21T03:25:18;17.27;;;11.40;;
13588;SDS011;6865;52.552;13.434;2022-11-21T03:27:45;14.93;;;11.20;;
13588;SDS011;6865;52.552;13.434;2022-11-21T03:30:12;17.30;;;12.17;;
13588;SDS011;6865;52.552;13.434;2022-11-21T03:32:38;16.47;;;11.10;;
13588;SDS011;6865;52.552;13.434;2022-11-21T03:35:05;17.57;;;11.70;;
13588;SDS011;6865;52.552;13.434;2022-11-21T03:37:32;17.63;;;12.17;;
13588;SDS011;6865;52.552;13.434;2022-11-21T03:39:58;17.47;;;11.83;;
13588;SDS011;6865;52.552;13.434;2022-11-21T03:42:25;17.30;;;11.70;;
13588;SDS011;6865;52.552;13.434;2022-11-21T03:44:52;18.00;;;11.70;;
13588;SDS011;6865;52.552;13.434;2022-11-21T03:47:19;17.73;;;12.30;;
13588;SDS011;6865;52.552;13.434;2022-11-21T03:49:45;18.30;;;12.40;;
13588;SDS011;6865;52.552;13.434;2022-11-21T03:52:12;16.57;;;11.87;;
13588;SDS011;6865;52.552;13.434;2022-11-21T03:54:38;17.70;;;11.97;;
13588;SDS011;6865;52.552;13.434;2022-11-21T03:57:05;17.83;;;11.97;;
13588;SDS011;6865;52.552;13.434;2022-11-21T03:59:32;17.53;;;11.97;;
13588;SDS011;6865;52.552;13.434;2022-11-21T04:01:58;16.47;;;11.13;;
13588;SDS011;6865;52.552;13.434;2022-11-21T04:04:25;19.23;;;11.47;;
13588;SDS011;6865;52.552;13.434;2022-11-21T04:06:52;16.27;;;11.70;;
13588;SDS011;6865;52.552;13.434;2022-11-21T04:09:18;18.07;;;12.00;;
13588;SDS011;6865;52.552;13.434;2022-11-21T04:11:45;18.40;;;11.73;;
13588;SDS011;6865;52.552;13.434;2022-11-21T04:14:12;17.27;;;12.43;;
13588;SDS011;6865;52.552;13.434;2022-11-21T04:16:38;17.50;;;11.37;;
13588;SDS011;6865;52.552;13.434;2022-11-21T04:19:05;16.93;;;11.40;;
13588;SDS011;6865;52.552;13.434;2022-11-21T04:21:31;19.13;;;12.50;;
13588;SDS011;6865;52.552;13.434;2022-11-21T04:23:58;18.97;;;11.77;;
13588;SDS011;6865;52.552;13.434;2022-11-21T04:26:24;17.23;;;11.73;;
13588;SDS011;6865;52.552;13.434;2022-11-21T04:28:51;19.23;;;12.27;;
13588;SDS011;6865;52.552;13.434;2022-11-21T04:31:17;20.40;;;12.60;;
13588;SDS011;6865;52.552;13.434;2022-11-21T04:33:44;20.07;;;13.27;;
13588;SDS011;6865;52.552;13.434;2022-11-21T04:36:11;41.33;;;20.70;;
13588;SDS011;6865;52.552;13.434;2022-11-21T04:38:37;43.00;;;22.50;;
13588;SDS011;6865;52.552;13.434;2022-11-21T04:41:04;38.40;;;19.63;;
13588;SDS011;6865;52.552;13.434;2022-11-21T04:43:30;26.27;;;14.57;;
13588;SDS011;6865;52.552;13.434;2022-11-21T04:45:57;20.07;;;12.93;;
13588;SDS011;6865;52.552;13.434;2022-11-21T04:48:23;19.60;;;12.90;;
13588;SDS011;6865;52.552;13.434;2022-11-21T04:50:50;19.77;;;12.97;;
13588;SDS011;6865;52.552;13.434;2022-11-21T04:53:17;19.90;;;12.73;;
13588;SDS011;6865;52.552;13.434;2022-11-21T04:55:43;18.70;;;11.77;;
13588;SDS011;6865;52.552;13.434;2022-11-21T04:58:10;20.43;;;13.63;;
13588;SDS011;6865;52.552;13.434;2022-11-21T05:00:36;19.20;;;12.53;;
13588;SDS011;6865;52.552;13.434;2022-11-21T05:03:03;20.23;;;13.37;;
13588;SDS011;6865;52.552;13.434;2022-11-21T05:05:31;20.23;;;13.30;;
13588;SDS011;6865;52.552;13.434;2022-11-21T05:07:58;20.23;;;12.90;;
13588;SDS011;6865;52.552;13.434;2022-11-21T05:10:24;21.60;;;13.77;;
13588;SDS011;6865;52.552;13.434;2022-11-21T05:12:58;18.67;;;12.90;;
13588;SDS011;6865;52.552;13.434;2022-11-21T05:15:44;20.83;;;12.67;;
13588;SDS011;6865;52.552;13.434;2022-11-21T05:18:10;21.73;;;13.73;;
13588;SDS011;6865;52.552;13.434;2022-11-21T05:20:37;20.47;;;13.63;;
13588;SDS011;6865;52.552;13.434;2022-11-21T05:23:04;20.83;;;13.57;;
13588;SDS011;6865;52.552;13.434;2022-11-21T05:25:31;20.47;;;13.60;;
13588;SDS011;6865;52.552;13.434;2022-11-21T05:27:57;20.67;;;13.13;;
13588;SDS011;6865;52.552;13.434;2022-11-21T05:30:24;18.80;;;12.87;;
13588;SDS011;6865;52.552;13.434;2022-11-21T05:32:50;20.33;;;13.17;;
13588;SDS011;6865;52.552;13.434;2022-11-21T05:35:17;21.07;;;14.00;;
13588;SDS011;6865;52.552;13.434;2022-11-21T05:37:44;19.77;;;13.30;;
13588;SDS011;6865;52.552;13.434;2022-11-21T05:40:10;25.10;;;16.43;;
13588;SDS011;6865;52.552;13.434;2022-11-21T05:42:38;20.47;;;13.50;;
13588;SDS011;6865;52.552;13.434;2022-11-21T05:45:23;18.87;;;12.07;;
13588;SDS011;6865;52.552;13.434;2022-11-21T05:47:50;18.30;;;12.30;;
13588;SDS011;6865;52.552;13.434;2022-11-21T05:50:16;18.70;;;12.67;;
13588;SDS011;6865;52.552;13.434;2022-11-21T05:52:43;18.47;;;12.67;;
13588;SDS011;6865;52.552;13.434;2022-11-21T05:55:09;18.30;;;12.10;;
13588;SDS011;6865;52.552;13.434;2022-11-21T05:57:36;19.70;;;12.50;;
13588;SDS011;6865;52.552;13.434;2022-11-21T06:00:03;19.90;;;12.97;;
13588;SDS011;6865;52.552;13.434;2022-11-21T06:02:29;19.53;;;12.37;;
13588;SDS011;6865;52.552;13.434;2022-11-21T06:05:15;20.10;;;12.53;;
13588;SDS011;6865;52.552;13.434;2022-11-21T06:07:41;19.40;;;12.60;;
13588;SDS011;6865;52.552;13.434;2022-11-21T06:10:08;18.93;;;12.53;;
13588;SDS011;6865;52.552;13.434;2022-11-21T06:12:35;23.07;;;13.43;;
13588;SDS011;6865;52.552;13.434;2022-11-21T06:15:01;21.53;;;13.20;;
13588;SDS011;6865;52.552;13.434;2022-11-21T06:17:28;20.47;;;13.43;;
13588;SDS011;6865;52.552;13.434;2022-11-21T06:19:55;23.57;;;14.20;;
13588;SDS011;6865;52.552;13.434;2022-11-21T06:22:21;20.93;;;13.47;;
13588;SDS011;6865;52.552;13.434;2022-11-21T06:24:48;19.93;;;13.53;;
13588;SDS011;6865;52.552;13.434;2022-11-21T06:27:14;19.30;;;12.97;;
13588;SDS011;6865;52.552;13.434;2022-11-21T06:29:41;21.87;;;13.57;;
13588;SDS011;6865;52.552;13.434;2022-11-21T06:32:07;21.40;;;14.03;;
13588;SDS011;6865;52.552;13.434;2022-11-21T06:34:34;19.20;;;12.90;;
13588;SDS011;6865;52.552;13.434;2022-11-21T06:37:00;20.27;;;13.30;;
13588;SDS011;6865;52.552;13.434;2022-11-21T06:39:27;21.00;;;13.53;;
13588;SDS011;6865;52.552;13.434;2022-11-21T06:41:54;20.20;;;13.23;;
13588;SDS011;6865;52.552;13.434;2022-11-21T06:44:20;21.03;;;13.30;;
13588;SDS011;6865;52.552;13.434;2022-11-21T06:46:47;18.17;;;12.77;;
13588;SDS011;6865;52.552;13.434;2022-11-21T06:49:16;19.87;;;13.23;;
13588;SDS011;6865;52.552;13.434;2022-11-21T06:51:43;22.20;;;13.03;;
13588;SDS011;6865;52.552;13.434;2022-11-21T06:54:10;22.63;;;12.80;;
13588;SDS011;6865;52.552;13.434;2022-11-21T06:56:42;21.00;;;12.90;;
13588;SDS011;6865;52.552;13.434;2022-11-21T06:59:08;21.23;;;12.90;;
13588;SDS011;6865;52.552;13.434;2022-11-21T07:01:35;19.77;;;13.00;;
13588;SDS011;6865;52.552;13.434;2022-11-21T07:04:02;18.60;;;12.83;;
13588;SDS011;6865;52.552;13.434;2022-11-21T07:06:29;21.27;;;13.47;;
13588;SDS011;6865;52.552;13.434;2022-11-21T07:08:55;20.27;;;13.67;;
13588;SDS011;6865;52.552;13.434;2022-11-21T07:11:42;20.33;;;12.93;;
13588;SDS011;6865;52.552;13.434;2022-11-21T07:14:09;20.67;;;13.63;;
13588;SDS011;6865;52.552;13.434;2022-11-21T07:16:35;20.53;;;13.90;;
13588;SDS011;6865;52.552;13.434;2022-11-21T07:19:03;19.80;;;13.87;;
13588;SDS011;6865;52.552;13.434;2022-11-21T07:21:29;20.87;;;13.67;;
13588;SDS011;6865;52.552;13.434;2022-11-21T07:23:56;23.23;;;14.30;;
13588;SDS011;6865;52.552;13.434;2022-11-21T07:26:22;19.53;;;12.87;;
13588;SDS011;6865;52.552;13.434;2022-11-21T07:28:49;19.80;;;13.17;;
13588;SDS011;6865;52.552;13.434;2022-11-21T07:31:15;20.57;;;13.33;;
13588;SDS011;6865;52.552;13.434;2022-11-21T07:33:42;22.17;;;14.13;;
13588;SDS011;6865;52.552;13.434;2022-11-21T07:36:09;23.93;;;15.23;;
13588;SDS011;6865;52.552;13.434;2022-11-21T07:38:37;22.13;;;14.37;;
13588;SDS011;6865;52.552;13.434;2022-11-21T07:41:03;23.03;;;14.40;;
13588;SDS011;6865;52.552;13.434;2022-11-21T07:43:30;21.37;;;14.43;;
13588;SDS011;6865;52.552;13.434;2022-11-21T07:45:57;22.03;;;14.50;;
13588;SDS011;6865;52.552;13.434;2022-11-21T07:48:23;23.30;;;15.60;;
13588;SDS011;6865;52.552;13.434;2022-11-21T07:50:50;24.30;;;15.73;;
13588;SDS011;6865;52.552;13.434;2022-11-21T07:53:16;30.77;;;17.03;;
13588;SDS011;6865;52.552;13.434;2022-11-21T07:55:43;27.07;;;16.60;;
13588;SDS011;6865;52.552;13.434;2022-11-21T07:58:11;27.20;;;16.80;;
13588;SDS011;6865;52.552;13.434;2022-11-21T08:00:40;26.43;;;16.07;;
13588;SDS011;6865;52.552;13.434;2022-11-21T08:03:10;28.63;;;16.43;;
13588;SDS011;6865;52.552;13.434;2022-11-21T08:05:41;30.90;;;16.67;;
13588;SDS011;6865;52.552;13.434;2022-11-21T08:08:09;26.57;;;15.67;;
13588;SDS011;6865;52.552;13.434;2022-11-21T08:10:37;30.87;;;16.27;;
13588;SDS011;6865;52.552;13.434;2022-11-21T08:13:05;32.07;;;18.57;;
13588;SDS011;6865;52.552;13.434;2022-11-21T08:15:32;28.53;;;16.90;;
13588;SDS011;6865;52.552;13.434;2022-11-21T08:18:05;27.83;;;17.10;;
13588;SDS011;6865;52.552;13.434;2022-11-21T08:20:36;29.67;;;16.07;;
13588;SDS011;6865;52.552;13.434;2022-11-21T08:23:03;29.53;;;17.13;;
13588;SDS011;6865;52.552;13.434;2022-11-21T08:25:31;23.20;;;15.50;;
13588;SDS011;6865;52.552;13.434;2022-11-21T08:27:59;28.47;;;16.77;;
13588;SDS011;6865;52.552;13.434;2022-11-21T08:30:27;25.67;;;16.67;;
13588;SDS011;6865;52.552;13.434;2022-11-21T08:32:54;26.80;;;17.10;;
13588;SDS011;6865;52.552;13.434;2022-11-21T08:35:22;27.33;;;16.83;;
13588;SDS011;6865;52.552;13.434;2022-11-21T08:37:48;28.43;;;16.93;;
13588;SDS011;6865;52.552;13.434;2022-11-21T08:40:20;21.90;;;12.73;;
13588;SDS011;6865;52.552;13.434;2022-11-21T08:42:47;23.23;;;14.70;;
13588;SDS011;6865;52.552;13.434;2022-11-21T08:45:13;21.53;;;13.20;;
13588;SDS011;6865;52.552;13.434;2022-11-21T08:47:40;20.47;;;13.57;;
13588;SDS011;6865;52.552;13.434;2022-11-21T08:50:07;22.37;;;14.10;;
13588;SDS011;6865;52.552;13.434;2022-11-21T08:52:34;21.80;;;13.90;;
13588;SDS011;6865;52.552;13.434;2022-11-21T08:55:01;24.70;;;14.77;;
13588;SDS011;6865;52.552;13.434;2022-11-21T08:57:27;27.67;;;14.97;;
13588;SDS011;6865;52.552;13.434;2022-11-21T08:59:54;28.13;;;16.03;;
13588;SDS011;6865;52.552;13.434;2022-11-21T09:02:20;27.20;;;15.30;;
13588;SDS011;6865;52.552;13.434;2022-11-21T09:04:47;27.67;;;15.53;;
13588;SDS011;6865;52.552;13.434;2022-11-21T09:07:14;25.83;;;15.53;;
13588;SDS011;6865;52.552;13.434;2022-11-21T09:09:41;30.60;;;15.53;;
13588;SDS011;6865;52.552;13.434;2022-11-21T09:12:07;30.10;;;15.97;;
13588;SDS011;6865;52.552;13.434;2022-11-21T09:14:34;34.53;;;16.13;;
13588;SDS011;6865;52.552;13.434;2022-11-21T09:17:19;28.73;;;16.57;;
13588;SDS011;6865;52.552;13.434;2022-11-21T09:20:04;30.97;;;16.33;;
13588;SDS011;6865;52.552;13.434;2022-11-21T09:22:31;28.10;;;15.97;;
13588;SDS011;6865;52.552;13.434;2022-11-21T09:24:58;30.73;;;16.77;;
13588;SDS011;6865;52.552;13.434;2022-11-21T09:27:24;24.30;;;14.30;;
13588;SDS011;6865;52.552;13.434;2022-11-21T09:29:51;28.53;;;15.27;;
13588;SDS011;6865;52.552;13.434;2022-11-21T09:32:19;27.30;;;14.10;;
13588;SDS011;6865;52.552;13.434;2022-11-21T09:34:46;22.40;;;13.50;;
13588;SDS011;6865;52.552;13.434;2022-11-21T09:37:12;24.50;;;13.30;;
13588;SDS011;6865;52.552;13.434;2022-11-21T09:39:39;24.83;;;13.37;;
13588;SDS011;6865;52.552;13.434;2022-11-21T09:45:07;24.67;;;13.97;;
13588;SDS011;6865;52.552;13.434;2022-11-21T09:47:46;23.47;;;14.43;;
13588;SDS011;6865;52.552;13.434;2022-11-21T09:50:21;23.23;;;13.33;;
13588;SDS011;6865;52.552;13.434;2022-11-21T09:52:53;23.30;;;13.30;;
13588;SDS011;6865;52.552;13.434;2022-11-21T09:55:43;20.37;;;12.50;;
13588;SDS011;6865;52.552;13.434;2022-11-21T09:58:17;20.23;;;11.63;;
13588;SDS011;6865;52.552;13.434;2022-11-21T10:01:03;19.73;;;11.90;;
13588;SDS011;6865;52.552;13.434;2022-11-21T10:03:31;18.50;;;10.87;;
13588;SDS011;6865;52.552;13.434;2022-11-21T10:06:41;20.30;;;12.20;;
13588;SDS011;6865;52.552;13.434;2022-11-21T10:12:18;21.03;;;12.17;;
13588;SDS011;6865;52.552;13.434;2022-11-21T10:27:01;17.43;;;10.57;;
13588;SDS011;6865;52.552;13.434;2022-11-21T10:29:55;17.57;;;10.03;;
13588;SDS011;6865;52.552;13.434;2022-11-21T10:32:31;17.60;;;10.67;;
13588;SDS011;6865;52.552;13.434;2022-11-21T10:35:11;17.50;;;10.03;;
13588;SDS011;6865;52.552;13.434;2022-11-21T10:37:48;18.33;;;11.20;;
13588;SDS011;6865;52.552;13.434;2022-11-21T10:40:22;19.50;;;11.00;;
13588;SDS011;6865;52.552;13.434;2022-11-21T10:42:53;19.07;;;11.50;;
13588;SDS011;6865;52.552;13.434;2022-11-21T10:45:47;18.30;;;11.03;;
13588;SDS011;6865;52.552;13.434;2022-11-21T10:48:14;17.73;;;11.40;;
13588;SDS011;6865;52.552;13.434;2022-11-21T10:53:38;15.80;;;10.27;;
13588;SDS011;6865;52.552;13.434;2022-11-21T10:56:31;12.63;;;8.43;;
13588;SDS011;6865;52.552;13.434;2022-11-21T10:58:59;12.50;;;8.80;;
13588;SDS011;6865;52.552;13.434;2022-11-21T11:01:38;15.13;;;9.77;;
13588;SDS011;6865;52.552;13.434;2022-11-21T11:04:05;12.97;;;8.50;;
13588;SDS011;6865;52.552;13.434;2022-11-21T11:07:18;14.53;;;8.23;;
13588;SDS011;6865;52.552;13.434;2022-11-21T11:10:13;13.47;;;8.70;;
13588;SDS011;6865;52.552;13.434;2022-11-21T11:12:52;12.10;;;8.13;;
13588;SDS011;6865;52.552;13.434;2022-11-21T11:16:15;12.77;;;7.87;;
13588;SDS011;6865;52.552;13.434;2022-11-21T11:21:20;12.07;;;8.10;;
13588;SDS011;6865;52.552;13.434;2022-11-21T11:23:52;15.33;;;9.80;;
13588;SDS011;6865;52.552;13.434;2022-11-21T11:28:52;14.73;;;8.13;;
13588;SDS011;6865;52.552;13.434;2022-11-21T11:31:38;13.90;;;8.60;;
13588;SDS011;6865;52.552;13.434;2022-11-21T11:34:07;15.17;;;8.70;;
13588;SDS011;6865;52.552;13.434;2022-11-21T11:36:42;12.33;;;7.50;;
13588;SDS011;6865;52.552;13.434;2022-11-21T11:42:24;13.63;;;8.90;;
13588;SDS011;6865;52.552;13.434;2022-11-21T11:48:30;12.20;;;8.63;;
13588;SDS011;6865;52.552;13.434;2022-11-21T11:51:24;15.17;;;9.23;;
13588;SDS011;6865;52.552;13.434;2022-11-21T11:53:59;18.10;;;9.67;;
13588;SDS011;6865;52.552;13.434;2022-11-21T11:56:34;14.07;;;9.33;;
13588;SDS011;6865;52.552;13.434;2022-11-21T11:59:20;15.87;;;9.63;;
13588;SDS011;6865;52.552;13.434;2022-11-21T12:02:02;14.43;;;9.60;;
13588;SDS011;6865;52.552;13.434;2022-11-21T12:04:46;15.27;;;10.20;;
13588;SDS011;6865;52.552;13.434;2022-11-21T12:07:18;16.33;;;10.27;;
13588;SDS011;6865;52.552;13.434;2022-11-21T12:13:50;17.00;;;10.50;;
13588;SDS011;6865;52.552;13.434;2022-11-21T12:16:20;17.57;;;10.73;;
13588;SDS011;6865;52.552;13.434;2022-11-21T12:19:06;17.70;;;10.30;;
13588;SDS011;6865;52.552;13.434;2022-11-21T12:21:39;15.40;;;9.63;;
13588;SDS011;6865;52.552;13.434;2022-11-21T12:24:07;16.27;;;9.73;;
13588;SDS011;6865;52.552;13.434;2022-11-21T12:26:39;15.23;;;10.20;;
13588;SDS011;6865;52.552;13.434;2022-11-21T12:29:23;15.87;;;10.13;;
13588;SDS011;6865;52.552;13.434;2022-11-21T12:32:03;16.77;;;10.67;;
13588;SDS011;6865;52.552;13.434;2022-11-21T12:34:51;16.63;;;11.57;;
13588;SDS011;6865;52.552;13.434;2022-11-21T12:40:49;21.57;;;13.57;;
13588;SDS011;6865;52.552;13.434;2022-11-21T12:44:08;24.80;;;15.03;;
13588;SDS011;6865;52.552;13.434;2022-11-21T12:50:19;22.60;;;12.77;;
13588;SDS011;6865;52.552;13.434;2022-11-21T12:56:43;21.13;;;14.13;;
13588;SDS011;6865;52.552;13.434;2022-11-21T12:59:30;22.67;;;13.00;;
13588;SDS011;6865;52.552;13.434;2022-11-21T13:04:43;19.33;;;12.00;;
13588;SDS011;6865;52.552;13.434;2022-11-21T13:07:12;16.73;;;11.53;;
13588;SDS011;6865;52.552;13.434;2022-11-21T13:09:40;19.60;;;12.47;;
13588;SDS011;6865;52.552;13.434;2022-11-21T13:12:12;18.03;;;12.90;;
13588;SDS011;6865;52.552;13.434;2022-11-21T13:14:50;14.33;;;10.43;;
13588;SDS011;6865;52.552;13.434;2022-11-21T13:25:11;12.17;;;9.07;;
13588;SDS011;6865;52.552;13.434;2022-11-21T13:27:47;13.53;;;9.23;;
13588;SDS011;6865;52.552;13.434;2022-11-21T13:30:15;12.00;;;8.93;;
13588;SDS011;6865;52.552;13.434;2022-11-21T13:32:44;14.03;;;9.50;;
13588;SDS011;6865;52.552;13.434;2022-11-21T13:40:33;12.10;;;8.80;;
13588;SDS011;6865;52.552;13.434;2022-11-21T13:43:22;12.30;;;9.33;;
13588;SDS011;6865;52.552;13.434;2022-11-21T13:45:59;12.00;;;8.87;;
13588;SDS011;6865;52.552;13.434;2022-11-21T13:48:41;12.00;;;9.23;;
13588;SDS011;6865;52.552;13.434;2022-11-21T13:54:30;13.37;;;9.27;;
13588;SDS011;6865;52.552;13.434;2022-11-21T14:08:21;12.53;;;7.93;;
13588;SDS011;6865;52.552;13.434;2022-11-21T14:10:53;12.07;;;8.23;;
13588;SDS011;6865;52.552;13.434;2022-11-21T14:13:28;11.40;;;8.20;;
13588;SDS011;6865;52.552;13.434;2022-11-21T14:18:29;12.97;;;8.60;;
13588;SDS011;6865;52.552;13.434;2022-11-21T14:20:57;14.33;;;9.20;;
13588;SDS011;6865;52.552;13.434;2022-11-21T14:23:26;13.40;;;9.17;;
13588;SDS011;6865;52.552;13.434;2022-11-21T14:25:58;14.53;;;8.93;;
13588;SDS011;6865;52.552;13.434;2022-11-21T14:28:30;16.73;;;9.97;;
13588;SDS011;6865;52.552;13.434;2022-11-21T14:30:58;18.47;;;10.53;;
13588;SDS011;6865;52.552;13.434;2022-11-21T14:36:13;16.83;;;9.87;;
13588;SDS011;6865;52.552;13.434;2022-11-21T14:41:10;14.50;;;9.17;;
13588;SDS011;6865;52.552;13.434;2022-11-21T14:46:25;15.63;;;9.50;;
13588;SDS011;6865;52.552;13.434;2022-11-21T14:48:53;14.73;;;9.60;;
13588;SDS011;6865;52.552;13.434;2022-11-21T14:51:22;13.43;;;9.33;;
13588;SDS011;6865;52.552;13.434;2022-11-21T14:53:50;13.07;;;8.80;;
13588;SDS011;6865;52.552;13.434;2022-11-21T14:56:25;14.30;;;9.27;;
13588;SDS011;6865;52.552;13.434;2022-11-21T14:58:55;13.73;;;9.30;;
13588;SDS011;6865;52.552;13.434;2022-11-21T15:01:24;12.40;;;8.63;;
13588;SDS011;6865;52.552;13.434;2022-11-21T15:04:04;14.40;;;9.50;;
13588;SDS011;6865;52.552;13.434;2022-11-21T15:06:40;15.10;;;10.10;;
13588;SDS011;6865;52.552;13.434;2022-11-21T15:09:13;15.50;;;10.20;;
13588;SDS011;6865;52.552;13.434;2022-11-21T15:12:02;14.30;;;9.73;;
13588;SDS011;6865;52.552;13.434;2022-11-21T15:14:43;14.47;;;10.50;;
13588;SDS011;6865;52.552;13.434;2022-11-21T15:17:15;14.97;;;10.03;;
13588;SDS011;6865;52.552;13.434;2022-11-21T15:19:45;14.70;;;9.73;;
13588;SDS011;6865;52.552;13.434;2022-11-21T15:22:27;14.57;;;9.83;;
13588;SDS011;6865;52.552;13.434;2022-11-21T15:27:40;13.63;;;9.63;;
13588;SDS011;6865;52.552;13.434;2022-11-21T15:38:14;16.53;;;10.30;;
13588;SDS011;6865;52.552;13.434;2022-11-21T15:40:59;15.63;;;11.07;;
13588;SDS011;6865;52.552;13.434;2022-11-21T15:43:35;16.63;;;11.17;;
13588;SDS011;6865;52.552;13.434;2022-11-21T15:46:49;15.70;;;11.30;;
13588;SDS011;6865;52.552;13.434;2022-11-21T15:48:59;17.47;;;11.83;;
13588;SDS011;6865;52.552;13.434;2022-11-21T15:51:50;16.53;;;11.17;;
13588;SDS011;6865;52.552;13.434;2022-11-21T15:54:32;17.80;;;12.23;;
13588;SDS011;6865;52.552;13.434;2022-11-21T15:56:58;18.33;;;11.50;;
13588;SDS011;6865;52.552;13.434;2022-11-21T15:59:25;18.53;;;11.97;;
13588;SDS011;6865;52.552;13.434;2022-11-21T16:01:52;16.63;;;11.93;;
13588;SDS011;6865;52.552;13.434;2022-11-21T16:04:18;16.90;;;11.97;;
13588;SDS011;6865;52.552;13.434;2022-11-21T16:06:51;18.23;;;12.30;;
13588;SDS011;6865;52.552;13.434;2022-11-21T16:09:18;18.43;;;12.47;;
13588;SDS011;6865;52.552;13.434;2022-11-21T16:11:44;16.93;;;12.23;;
13588;SDS011;6865;52.552;13.434;2022-11-21T16:14:13;19.67;;;12.73;;
13588;SDS011;6865;52.552;13.434;2022-11-21T16:16:41;17.03;;;11.93;;
13588;SDS011;6865;52.552;13.434;2022-11-21T16:19:09;18.37;;;12.67;;
13588;SDS011;6865;52.552;13.434;2022-11-21T16:21:36;17.43;;;12.43;;
13588;SDS011;6865;52.552;13.434;2022-11-21T16:24:03;18.30;;;13.60;;
13588;SDS011;6865;52.552;13.434;2022-11-21T16:26:30;18.03;;;13.73;;
13588;SDS011;6865;52.552;13.434;2022-11-21T16:28:59;17.87;;;12.57;;